| time (UTC) | temp F | wind direction | speed knots | gust knots | rain 1hr in | rain 24hr in | rain mn in | humidity % | barometer mb |
| 20260507103503 | 46 | 184 | 1.7 | 7.0 | 0.00 | 0.00 | 0.00 | 73 | 1012.5 |
| 20260507102503 | 46 | 206 | 1.7 | 7.8 | 0.00 | 0.00 | 0.00 | 72 | 1012.4 |
| 20260507101618 | 46 | 178 | 1.7 | 4.3 | 0.00 | 0.00 | 0.00 | 71 | 1012.5 |
| 20260507100503 | 46 | 183 | 2.6 | 6.1 | 0.00 | 0.00 | 0.00 | 71 | 1012.5 |
| 20260507095503 | 46 | 175 | 1.7 | 6.1 | 0.00 | 0.00 | 0.00 | 70 | 1012.6 |
| 20260507094503 | 46 | 174 | 2.6 | 7.8 | 0.00 | 0.00 | 0.00 | 70 | 1012.7 |
| 20260507093503 | 46 | 182 | 1.7 | 4.3 | 0.00 | 0.00 | 0.00 | 70 | 1012.7 |
| 20260507092618 | 46 | 199 | 1.7 | 5.2 | 0.00 | 0.00 | 0.00 | 68 | 1012.8 |
| 20260507091617 | 46 | 190 | 1.7 | 5.2 | 0.00 | 0.00 | 0.00 | 67 | 1013.0 |
| 20260507090503 | 46 | 173 | 1.7 | 6.1 | 0.00 | 0.00 | 0.00 | 67 | 1013.1 |
| 20260507085617 | 46 | 160 | 0.9 | 4.3 | 0.00 | 0.00 | 0.00 | 65 | 1013.3 |
| 20260507084503 | 46 | 172 | 0.9 | 5.2 | 0.00 | 0.00 | 0.00 | 64 | 1013.3 |
| 20260507083503 | 46 | 191 | 1.7 | 4.3 | 0.00 | 0.00 | 0.00 | 63 | 1013.4 |
| 20260507082503 | 46 | 221 | 1.7 | 7.8 | 0.00 | 0.00 | 0.00 | 62 | 1013.5 |
| 20260507081503 | 46 | 212 | 1.7 | 6.1 | 0.00 | 0.00 | 0.00 | 61 | 1013.6 |
| 20260507080506 | 46 | 210 | 1.7 | 7.0 | 0.00 | 0.00 | 0.00 | 61 | 1013.8 |
| 20260507075503 | 46 | 212 | 1.7 | 7.0 | 0.00 | 0.00 | 0.00 | 60 | 1014.0 |
| 20260507074618 | 45 | 186 | 0.9 | 4.3 | 0.00 | 0.00 | 0.00 | 59 | 1014.1 |
| 20260507073506 | 45 | 187 | 0.9 | 3.5 | 0.00 | 0.00 | 0.00 | 58 | 1014.2 |
| 20260507072503 | 45 | 197 | 0.9 | 3.5 | 0.00 | 0.00 | 0.00 | 57 | 1014.3 |
| 20260507071618 | 45 | 169 | 0.9 | 1.7 | 0.00 | 0.00 | 0.00 | 57 | 1014.4 |
| 20260507070504 | 45 | 165 | 0.9 | 3.5 | 0.00 | 0.00 | 0.00 | 57 | 1014.5 |
| 20260507065503 | 44 | 195 | 0.9 | 3.5 | 0.00 | 0.00 | 0.00 | 58 | 1014.6 |
| 20260507064503 | 43 | 186 | 0.0 | 3.5 | 0.00 | 0.00 | 0.00 | 60 | 1014.8 |
| 20260507063502 | 42 | 175 | 0.0 | 2.6 | 0.00 | 0.00 | 0.00 | 60 | 1014.9 |
| 20260507062502 | 42 | 182 | 0.0 | 0.9 | 0.00 | 0.00 | 0.00 | 60 | 1014.9 |
| 20260507061503 | 43 | 178 | 0.0 | 0.9 | 0.00 | 0.00 | 0.00 | 59 | 1014.9 |
| 20260507060618 | 43 | 178 | 0.0 | 0.0 | 0.00 | 0.00 | 0.00 | 56 | 1015.0 |
| 20260507055503 | 43 | 178 | 0.0 | 1.7 | 0.00 | 0.00 | 0.00 | 56 | 1015.1 |
| 20260507054503 | 43 | 180 | 0.9 | 1.7 | 0.00 | 0.00 | 0.00 | 58 | 1015.2 |
| 20260507053502 | 43 | 207 | 0.0 | 1.7 | 0.00 | 0.00 | 0.00 | 60 | 1015.2 |
| 20260507052503 | 42 | 251 | 0.0 | 0.0 | 0.00 | 0.00 | 0.00 | 63 | 1015.2 |
| 20260507051618 | 41 | 252 | 0.0 | 0.0 | 0.00 | 0.00 | 0.00 | 64 | 1015.2 |
| 20260507050503 | 41 | 262 | 0.0 | 0.0 | 0.00 | 0.00 | 0.00 | 63 | 1015.4 |
| 20260507045503 | 41 | 296 | 0.0 | 0.0 | 0.00 | 0.00 | 0.00 | 65 | 1015.3 |
| 20260507044503 | 41 | 296 | 0.0 | 0.0 | 0.00 | 0.00 | 0.00 | 63 | 1015.3 |
| 20260507043506 | 41 | 296 | 0.0 | 0.0 | 0.00 | 0.00 | 0.00 | 61 | 1015.5 |
| 20260507042503 | 41 | 296 | 0.0 | 0.0 | 0.00 | 0.00 | 0.00 | 60 | 1015.6 |
| 20260507041503 | 42 | 296 | 0.0 | 0.0 | 0.00 | 0.00 | 0.00 | 61 | 1015.7 |
| 20260507040503 | 42 | 296 | 0.0 | 0.0 | 0.00 | 0.00 | 0.00 | 59 | 1015.8 |
| 20260507035506 | 42 | 296 | 0.0 | 0.0 | 0.00 | 0.00 | 0.00 | 60 | 1015.7 |
| 20260507034503 | 42 | 296 | 0.0 | 0.0 | 0.00 | 0.00 | 0.00 | 60 | 1015.9 |
| 20260507033503 | 43 | 296 | 0.0 | 0.0 | 0.00 | 0.00 | 0.00 | 60 | 1015.9 |
| 20260507032503 | 43 | 296 | 0.0 | 0.0 | 0.00 | 0.00 | 0.00 | 56 | 1016.0 |
| 20260507031617 | 44 | 296 | 0.0 | 0.0 | 0.00 | 0.00 | 0.00 | 55 | 1016.0 |
| 20260507030503 | 45 | 296 | 0.0 | 0.0 | 0.00 | 0.00 | 0.00 | 55 | 1015.9 |
| 20260507025503 | 45 | 296 | 0.0 | 0.0 | 0.00 | 0.00 | 0.00 | 52 | 1015.9 |
| 20260507024618 | 46 | 296 | 0.0 | 0.0 | 0.00 | 0.00 | 0.00 | 51 | 1016.0 |
| 20260507023503 | 47 | 296 | 0.0 | 0.0 | 0.00 | 0.00 | 0.00 | 45 | 1015.9 |
| 20260507022503 | 48 | 296 | 0.0 | 0.0 | 0.00 | 0.00 | 0.00 | 44 | 1015.7 |
| 20260507021618 | 48 | 296 | 0.0 | 0.0 | 0.00 | 0.00 | 0.00 | 46 | 1015.7 |
| 20260507020503 | 49 | 296 | 0.0 | 0.0 | 0.00 | 0.00 | 0.00 | 39 | 1015.6 |
| 20260507015503 | 50 | 296 | 0.0 | 0.0 | 0.00 | 0.00 | 0.00 | 37 | 1015.7 |
| 20260507014503 | 51 | 296 | 0.0 | 0.0 | 0.00 | 0.00 | 0.00 | 35 | 1015.7 |
| 20260507013503 | 53 | 296 | 0.0 | 0.0 | 0.00 | 0.00 | 0.00 | 32 | 1015.5 |
| 20260507012504 | 54 | 296 | 0.0 | 0.0 | 0.00 | 0.00 | 0.00 | 30 | 1015.6 |
| 20260507011618 | 55 | 292 | 0.0 | 2.6 | 0.00 | 0.00 | 0.00 | 27 | 1015.5 |
| 20260507010503 | 56 | 277 | 0.9 | 2.6 | 0.00 | 0.00 | 0.00 | 25 | 1015.6 |
| 20260507005503 | 57 | 261 | 0.9 | 4.3 | 0.00 | 0.00 | 0.00 | 25 | 1015.6 |
| 20260507004503 | 57 | 291 | 0.0 | 3.5 | 0.00 | 0.00 | 0.00 | 25 | 1015.6 |
| 20260507003503 | 57 | 294 | 1.7 | 7.0 | 0.00 | 0.00 | 0.00 | 25 | 1015.5 |
| 20260507002506 | 58 | 277 | 0.9 | 3.5 | 0.00 | 0.00 | 0.00 | 25 | 1015.7 |
| 20260507001503 | 58 | 298 | 2.6 | 6.1 | 0.00 | 0.00 | 0.00 | 24 | 1015.8 |
| 20260507000503 | 58 | 323 | 2.6 | 7.0 | 0.00 | 0.00 | 0.00 | 25 | 1015.8 |
| 20260506235503 | 59 | 307 | 3.5 | 10.4 | 0.00 | 0.00 | 0.00 | 24 | 1016.0 |
| 20260506234503 | 59 | 279 | 2.6 | 8.7 | 0.00 | 0.00 | 0.00 | 24 | 1016.1 |
| 20260506233503 | 60 | 292 | 2.6 | 7.8 | 0.00 | 0.00 | 0.00 | 24 | 1016.1 |
| 20260506232503 | 60 | 300 | 3.5 | 8.7 | 0.00 | 0.00 | 0.00 | 23 | 1016.1 |
| 20260506231503 | 60 | 315 | 3.5 | 9.6 | 0.00 | 0.00 | 0.00 | 24 | 1016.2 |
| 20260506230503 | 60 | 314 | 4.3 | 9.6 | 0.00 | 0.00 | 0.00 | 23 | 1016.3 |
| 20260506225503 | 59 | 328 | 2.6 | 8.7 | 0.00 | 0.00 | 0.00 | 25 | 1016.3 |
| 20260506224618 | 60 | 313 | 3.5 | 10.4 | 0.00 | 0.00 | 0.00 | 25 | 1016.4 |
| 20260506223503 | 59 | 315 | 2.6 | 7.0 | 0.00 | 0.00 | 0.00 | 24 | 1016.5 |
| 20260506222618 | 60 | 295 | 3.5 | 9.6 | 0.00 | 0.00 | 0.00 | 24 | 1016.6 |
| 20260506221503 | 59 | 284 | 2.6 | 9.6 | 0.00 | 0.00 | 0.00 | 25 | 1016.6 |
| 20260506220503 | 59 | 280 | 3.5 | 7.8 | 0.00 | 0.00 | 0.00 | 25 | 1016.8 |
| 20260506215503 | 59 | 304 | 3.5 | 10.4 | 0.00 | 0.00 | 0.00 | 25 | 1016.8 |
| 20260506214503 | 58 | 289 | 4.3 | 13.9 | 0.00 | 0.00 | 0.00 | 24 | 1016.9 |
| 20260506213503 | 59 | 305 | 4.3 | 9.6 | 0.00 | 0.00 | 0.00 | 25 | 1017.1 |
| 20260506212503 | 60 | 330 | 3.5 | 10.4 | 0.00 | 0.00 | 0.00 | 25 | 1017.2 |
| 20260506211504 | 59 | 279 | 1.7 | 6.1 | 0.00 | 0.00 | 0.00 | 25 | 1017.2 |
| 20260506210503 | 60 | 270 | 4.3 | 9.6 | 0.00 | 0.00 | 0.00 | 25 | 1017.4 |
| 20260506205503 | 59 | 285 | 3.5 | 9.6 | 0.00 | 0.00 | 0.00 | 25 | 1017.5 |
| 20260506204503 | 60 | 315 | 4.3 | 10.4 | 0.00 | 0.00 | 0.00 | 25 | 1017.6 |
| 20260506203503 | 59 | 312 | 3.5 | 9.6 | 0.00 | 0.00 | 0.00 | 26 | 1017.7 |
| 20260506202503 | 59 | 326 | 3.5 | 8.7 | 0.00 | 0.00 | 0.00 | 27 | 1017.8 |
| 20260506201503 | 60 | 325 | 4.3 | 11.3 | 0.00 | 0.00 | 0.00 | 25 | 1017.8 |
| 20260506200506 | 59 | 277 | 2.6 | 9.6 | 0.00 | 0.00 | 0.00 | 26 | 1017.8 |
| 20260506195621 | 59 | 304 | 5.2 | 14.8 | 0.00 | 0.00 | 0.00 | 26 | 1018.1 |
| 20260506194503 | 58 | 307 | 5.2 | 12.2 | 0.00 | 0.00 | 0.00 | 26 | 1018.2 |
| 20260506193503 | 58 | 281 | 4.3 | 10.4 | 0.00 | 0.00 | 0.00 | 25 | 1018.2 |
| 20260506192504 | 59 | 316 | 4.3 | 11.3 | 0.00 | 0.00 | 0.00 | 25 | 1018.2 |
| 20260506191502 | 58 | 306 | 3.5 | 10.4 | 0.00 | 0.00 | 0.00 | 27 | 1018.3 |
| 20260506190503 | 57 | 327 | 5.2 | 9.6 | 0.00 | 0.00 | 0.00 | 27 | 1018.2 |
| 20260506185503 | 56 | 330 | 3.5 | 12.2 | 0.00 | 0.00 | 0.00 | 29 | 1018.3 |
| 20260506184503 | 58 | 324 | 4.3 | 9.6 | 0.00 | 0.00 | 0.00 | 26 | 1018.3 |
| 20260506183503 | 56 | 301 | 3.5 | 12.2 | 0.00 | 0.00 | 0.00 | 28 | 1018.5 |
| 20260506182507 | 56 | 269 | 4.3 | 13.9 | 0.00 | 0.00 | 0.00 | 27 | 1018.6 |
| 20260506181617 | 57 | 328 | 6.1 | 13.0 | 0.00 | 0.00 | 0.00 | 27 | 1018.5 |
| 20260506180503 | 58 | 312 | 5.2 | 13.0 | 0.00 | 0.00 | 0.00 | 28 | 1018.6 |
| 20260506175503 | 57 | 308 | 5.2 | 12.2 | 0.00 | 0.00 | 0.00 | 28 | 1018.8 |
| 20260506174618 | 57 | 290 | 4.3 | 14.8 | 0.00 | 0.00 | 0.00 | 29 | 1018.9 |
| 20260506173503 | 56 | 286 | 2.6 | 7.8 | 0.00 | 0.00 | 0.00 | 30 | 1019.0 |
| 20260506172503 | 55 | 273 | 3.5 | 9.6 | 0.00 | 0.00 | 0.00 | 34 | 1019.3 |
| 20260506171618 | 55 | 291 | 2.6 | 9.6 | 0.00 | 0.00 | 0.00 | 32 | 1019.4 |
| 20260506170503 | 55 | 299 | 2.6 | 7.8 | 0.00 | 0.00 | 0.00 | 32 | 1019.4 |
| 20260506165504 | 54 | 244 | 3.5 | 10.4 | 0.00 | 0.00 | 0.00 | 33 | 1019.5 |
| 20260506164503 | 55 | 266 | 4.3 | 9.6 | 0.00 | 0.00 | 0.00 | 31 | 1019.4 |
| 20260506163503 | 54 | 285 | 3.5 | 10.4 | 0.00 | 0.00 | 0.00 | 33 | 1019.4 |
| 20260506162503 | 54 | 302 | 3.5 | 7.8 | 0.00 | 0.00 | 0.00 | 33 | 1019.4 |
| 20260506161503 | 53 | 345 | 4.3 | 11.3 | 0.00 | 0.00 | 0.00 | 32 | 1019.5 |
| 20260506160504 | 53 | 330 | 4.3 | 13.0 | 0.00 | 0.00 | 0.00 | 34 | 1019.5 |
| 20260506155503 | 52 | 318 | 4.3 | 8.7 | 0.00 | 0.00 | 0.00 | 34 | 1019.5 |
| 20260506154503 | 52 | 304 | 3.5 | 11.3 | 0.00 | 0.00 | 0.00 | 35 | 1019.5 |
| 20260506153503 | 52 | 297 | 2.6 | 8.7 | 0.00 | 0.00 | 0.00 | 36 | 1019.4 |
| 20260506152621 | 51 | 271 | 1.7 | 6.1 | 0.00 | 0.00 | 0.00 | 37 | 1019.5 |
| 20260506151503 | 51 | 316 | 3.5 | 8.7 | 0.00 | 0.00 | 0.00 | 36 | 1019.5 |
| 20260506150506 | 51 | 326 | 2.6 | 7.8 | 0.00 | 0.00 | 0.00 | 36 | 1019.5 |
| 20260506145618 | 51 | 315 | 2.6 | 7.0 | 0.00 | 0.00 | 0.00 | 37 | 1019.4 |
| 20260506144503 | 50 | 303 | 1.7 | 7.0 | 0.00 | 0.00 | 0.00 | 39 | 1019.6 |
| 20260506143503 | 50 | 323 | 1.7 | 4.3 | 0.00 | 0.00 | 0.00 | 39 | 1019.6 |
| 20260506142504 | 49 | 321 | 3.5 | 7.0 | 0.00 | 0.00 | 0.00 | 39 | 1019.7 |
| 20260506141503 | 48 | 305 | 1.7 | 5.2 | 0.00 | 0.00 | 0.00 | 41 | 1019.5 |
| 20260506140503 | 48 | 340 | 2.6 | 4.3 | 0.00 | 0.00 | 0.00 | 41 | 1019.3 |
| 20260506135503 | 47 | 6 | 2.6 | 5.2 | 0.00 | 0.00 | 0.00 | 42 | 1019.2 |
| 20260506134503 | 46 | 354 | 3.5 | 7.0 | 0.00 | 0.00 | 0.00 | 44 | 1019.2 |
| 20260506133618 | 45 | 336 | 2.6 | 7.0 | 0.00 | 0.00 | 0.00 | 47 | 1019.1 |
| 20260506132617 | 44 | 335 | 3.5 | 7.0 | 0.00 | 0.00 | 0.00 | 48 | 1019.0 |
| 20260506131503 | 44 | 337 | 3.5 | 7.8 | 0.00 | 0.00 | 0.00 | 50 | 1018.8 |
| 20260506130618 | 43 | 342 | 2.6 | 5.2 | 0.00 | 0.00 | 0.00 | 51 | 1018.7 |
| 20260506125503 | 42 | 320 | 1.7 | 3.5 | 0.00 | 0.00 | 0.00 | 52 | 1018.7 |
| 20260506124618 | 41 | 299 | 0.9 | 2.6 | 0.00 | 0.00 | 0.00 | 54 | 1018.7 |
| 20260506123503 | 40 | 315 | 0.9 | 2.6 | 0.00 | 0.00 | 0.00 | 57 | 1018.5 |
| 20260506122503 | 39 | 330 | 0.9 | 3.5 | 0.00 | 0.00 | 0.00 | 60 | 1018.3 |
| 20260506121503 | 36 | 337 | 0.0 | 0.9 | 0.00 | 0.00 | 0.00 | 68 | 1018.3 |
| 20260506120618 | 36 | 340 | 0.0 | 0.0 | 0.00 | 0.00 | 0.00 | 73 | 1018.0 |
| 20260506115503 | 35 | 340 | 0.0 | 0.0 | 0.00 | 0.00 | 0.00 | 72 | 1017.8 |
| 20260506114618 | 35 | 340 | 0.0 | 0.0 | 0.00 | 0.00 | 0.00 | 70 | 1017.7 |
| 20260506113503 | 36 | 340 | 0.0 | 0.0 | 0.00 | 0.00 | 0.00 | 68 | 1017.6 |
| 20260506112618 | 36 | 340 | 0.0 | 0.0 | 0.00 | 0.00 | 0.00 | 67 | 1017.5 |
| 20260506111503 | 36 | 340 | 0.0 | 0.0 | 0.00 | 0.00 | 0.00 | 66 | 1017.4 |
| 20260506110504 | 37 | 340 | 0.0 | 0.0 | 0.00 | 0.00 | 0.00 | 62 | 1017.5 |
| 20260506105618 | 38 | 340 | 0.0 | 0.0 | 0.00 | 0.00 | 0.00 | 61 | 1017.4 |
| 20260506104503 | 39 | 340 | 0.0 | 0.0 | 0.00 | 0.00 | 0.00 | 58 | 1017.4 |